Atyrau, Kazakhstan

10:27 AM AQTT on July 25, 2014 (GMT +0500)
Atyrau (UATG) Elev -72 ft | 47.12 °N, 51.83 °E | Change Station

Current weather conditions updated 27 minutes ago

Clear
Clear
86 °F
Feels Like 86 °F
N
4
Wind Variable Wind from East

Today is forecast to be Warmer than yesterday.

Today
High -- | Low -- °F
--% Chance of Precip.
Yesterday
High -- | Low -- °F
Precip. -- in
6:02 AM 9:14 PM
Waning Crescent, 3% visible
Pressure 29.83 in
Visibility -9999.0 miles
Clouds
Dew Point 37 °F
Humidity 18%
Rainfall 0.00 in
Snow Depth Not available.
UV Not available.
Pollen Not available.
Air Quality Not available.
Flu Activity Not available.
METAR UATG 250500Z 10002MPS 070V150 CAVOK 30/03 Q1010 R32/CLRD70 NOSIG RMK QFE759/1013

More Conditions Fewer Conditions

Pressure 29.83 in
Visibility -9999.0 miles
Clouds
Dew Point 37 °F
Humidity 18%
Rainfall 0.00 in
Snow Depth Not available.
UV Not available.
Pollen Not available.
Air Quality Not available.
Flu Activity Not available.
METAR UATG 250500Z 10002MPS 070V150 CAVOK 30/03 Q1010 R32/CLRD70 NOSIG RMK QFE759/1013

More Conditions Fewer Conditions

10-Day Weather Forecast

Almanac

Astronomy

Jul. 25, 2014 Rise Set
Actual Time 6:02 AM AQTT 9:14 PM AQTT
Civil Twilight 5:26 AM AQTT 9:51 PM AQTT
Nautical Twilight 4:38 AM AQTT 10:39 PM AQTT
Astronomical Twilight 3:38 AM AQTT 11:38 PM AQTT
Moon 4:43 AM AQTT 7:52 PM AQTT
Length of Visible Light 16h 25m
Length of Day
15h 12m
Tomorrow will be 2m 20s shorter.
Waning Crescent, 3% of the Moon is Illuminated
Today
Waning Crescent
Jul 26
New
Aug 3
First Quarter
Aug 10
Full
Aug 17
Last Quarter

Yesterday's Extremes

Country Highs Country Lows

Community

WunderPhotos

Upload Photos

1,737,245 photos uploaded!

Nearby

Snow Depth

Not available.

Earthquake Activity

City Distance Mag. Time & Date
No recent earthquake activity has been reported nearby.
Minimum magnitude displayed is 2.5.

Coastal Water Temperatures

Place Temperature
No Stations Reporting

Nearby Weather Stations

There are no personal weather stations in this area.